Port Byron, Illinois
Current Conditions -  °F | °C
As of 3:52 PM on Thursday 27 Nov 2014 (Local Time) from KDVN Reporting Station
Clear Clear  
Wind Chill:   Ceiling: Unl
Heat Index: 15°   Visibility: 10mi
Dew Point:   Wind: 13mph
Humidity: 61%   Direction: 290°WNW
Pressure: 30.45"   Gusts: NA
Location:  41.61°N, 90.34°W
Report Text: KDVN 272152Z AUTO 29011KT 10SM CLR M09/M16 A3045 RMK AO2 SLP323 T10941156
Loading
Personal Weather Stations






























Interactive Weather Map New forecast layout! Learn more

10-Day Weather Forecast

Advertisements
Track Severe Weather on mobile